Terminal Aerodrome Forecast
Issued by NWS Anchorage, AK

Home | Current Version | Previous Version | Text Only | Print | Product List | Glossary On
Versions: 1 2 3 4 5 6 7 8 9 10 11 12 13 14 15 16 17 18 19 20 21 22 23 24 25 26 27 28 29 30 31 32 33 34 35 36 37 38 39 40 41 42 43
000
FTAK31 PANC 042336
TAFANC
TAF
PANC 042336Z 0500/0606 VRB03KT P6SM -SHRA BKN040 OVC060
     FM050300 VRB03KT P6SM VCSH SCT045 OVC060
     FM051200 VRB04KT P6SM VCFG BKN006 BKN012
     FM052000 VRB03KT P6SM SCT012 BKN045
     FM060000 VRB03KT P6SM BKN120=

USA.gov is the U.S. government's official web portal to all federal, state and local government web resources and services.